Time;durP1;ratioP1;P1;durP2;ratioP2;P2;SDS_P1;SDS_P2;PMS_P1;PMS_P2;Temp;Humidity;BMP_temperature;BMP_pressure;BME280_temperature;BME280_humidity;BME280_pressure;Samples;Min_cycle;Max_cycle;Signal;HPM_P1;HPM_P2
2022/11/03 00:01:15;;;;;;;8.57;5.30;;;;;;;7.00;73.21;99407.41;5053718;28;40578;-77
2022/11/03 00:03:42;;;;;;;6.60;4.40;;;;;;;7.00;73.08;99417.09;5053876;28;39128;-80
2022/11/03 00:06:12;;;;;;;7.27;4.30;;;;;;;7.00;72.87;99411.81;5069788;28;41460;-82
2022/11/03 00:08:41;;;;;;;6.20;4.00;;;;;;;6.98;72.91;99409.25;5053849;28;44515;-83
2022/11/03 00:11:10;;;;;;;4.80;3.77;;;;;;;6.97;73.13;99406.66;5053974;28;41057;-81
2022/11/03 00:13:40;;;;;;;4.27;3.30;;;;;;;6.95;72.97;99403.22;5067659;28;39979;-80
2022/11/03 00:16:09;;;;;;;7.10;3.80;;;;;;;6.84;72.97;99385.22;5054998;28;40401;-79
2022/11/03 00:18:36;;;;;;;5.73;3.77;;;;;;;6.80;73.43;99378.34;5071532;28;41660;-79
2022/11/03 00:21:06;;;;;;;7.00;4.70;;;;;;;6.87;73.61;99385.13;5071275;28;42231;-79
2022/11/03 00:23:37;;;;;;;6.43;4.60;;;;;;;6.84;73.28;99379.97;5054431;28;38870;-80
2022/11/03 00:26:10;;;;;;;5.33;3.80;;;;;;;6.79;73.24;99372.25;5055036;28;40800;-79
2022/11/03 00:28:38;;;;;;;7.87;4.20;;;;;;;6.78;73.03;99374.94;5054408;28;43456;-79
2022/11/03 00:31:08;;;;;;;7.90;4.23;;;;;;;6.71;72.96;99371.69;5071889;28;42329;-79
2022/11/03 00:33:36;;;;;;;7.10;4.73;;;;;;;6.60;73.04;99360.72;5072440;28;40243;-79
2022/11/03 00:36:04;;;;;;;8.53;4.63;;;;;;;6.56;73.00;99353.84;5055153;28;42488;-80
2022/11/03 00:38:32;;;;;;;9.23;5.00;;;;;;;6.67;73.09;99387.66;5054386;28;43173;-80
2022/11/03 00:41:02;;;;;;;10.47;5.67;;;;;;;6.65;73.78;99379.81;5071610;28;41183;-79
2022/11/03 00:43:32;;;;;;;8.03;4.43;;;;;;;6.37;73.56;99318.63;5072506;28;40003;-79
2022/11/03 00:46:00;;;;;;;9.10;4.80;;;;;;;6.60;73.63;99360.72;5054796;28;40631;-79
2022/11/03 00:48:39;;;;;;;7.90;4.17;;;;;;;6.56;73.52;99361.72;5070447;28;41833;-80
2022/11/03 00:51:09;;;;;;;9.53;4.50;;;;;;;6.54;73.32;99360.97;5071572;28;41131;-79
2022/11/03 00:53:39;;;;;;;6.93;4.20;;;;;;;6.52;73.90;99356.66;5071280;28;40021;-79
2022/11/03 08:18:01;;;;;;;6.93;5.37;;;;;;;7.87;100.00;98873.84;5109439;28;20552;-81
2022/11/03 08:20:29;;;;;;;11.70;5.70;;;;;;;8.99;96.75;98883.66;5091250;28;38783;-81
2022/11/03 08:22:57;;;;;;;8.63;5.77;;;;;;;9.83;90.34;98896.47;5091577;28;41736;-79
2022/11/03 08:25:24;;;;;;;7.00;4.90;;;;;;;10.35;86.50;98884.50;5091247;28;41740;-79
2022/11/03 08:27:52;;;;;;;8.70;5.93;;;;;;;10.66;83.36;98880.81;5125576;27;40989;-81
2022/11/03 08:30:19;;;;;;;8.33;5.30;;;;;;;10.77;81.74;98859.78;5142812;27;40348;-79
2022/11/03 08:32:46;;;;;;;11.67;5.53;;;;;;;11.03;80.27;98870.53;5108143;28;40822;-80
2022/11/03 08:35:16;;;;;;;5.97;5.10;;;;;;;11.19;78.73;98859.81;5109506;28;42790;-81
2022/11/03 08:37:43;;;;;;;8.70;6.40;;;;;;;11.40;76.84;98859.25;5108263;28;41801;-80
2022/11/03 08:40:12;;;;;;;7.93;6.00;;;;;;;11.57;76.08;98866.09;5109560;28;40973;-79
2022/11/03 08:42:39;;;;;;;8.77;6.07;;;;;;;11.62;75.65;98848.06;5109201;28;41872;-80
2022/11/03 08:45:07;;;;;;;7.37;5.47;;;;;;;11.88;75.26;98848.97;5109325;28;43551;-79
2022/11/03 08:47:35;;;;;;;8.63;5.43;;;;;;;12.00;74.24;98842.00;5142351;27;42894;-80
2022/11/03 08:50:03;;;;;;;7.97;5.90;;;;;;;12.16;73.77;98843.50;5106014;28;39918;-81
2022/11/03 08:52:33;;;;;;;6.60;5.10;;;;;;;12.27;74.00;98818.84;5108567;28;42763;-79
2022/11/03 08:55:00;;;;;;;5.67;5.07;;;;;;;12.57;73.51;98831.78;5106030;28;43301;-83
2022/11/03 08:57:28;;;;;;;7.17;5.87;;;;;;;12.47;72.75;98778.47;5106024;28;43389;-79
2022/11/03 08:59:55;;;;;;;6.43;5.00;;;;;;;12.83;71.69;98803.34;5106398;28;38980;-79
2022/11/03 09:02:23;;;;;;;7.90;5.57;;;;;;;13.15;71.58;98815.16;5089481;28;40711;-80
2022/11/03 09:04:50;;;;;;;8.50;5.10;;;;;;;13.43;69.93;98821.94;5105360;28;42884;-79
2022/11/03 09:07:18;;;;;;;8.77;4.50;;;;;;;13.86;69.58;98830.19;5089825;28;41379;-83
2022/11/03 09:09:47;;;;;;;9.90;4.93;;;;;;;14.31;68.39;98814.31;5089508;28;41700;-85
2022/11/03 09:12:14;;;;;;;5.83;4.60;;;;;;;14.52;68.03;98812.63;5084667;28;41109;-80
2022/11/03 09:14:45;;;;;;;5.37;4.47;;;;;;;14.58;67.71;98804.16;5106228;28;41996;-80
2022/11/03 09:17:16;;;;;;;6.17;4.97;;;;;;;14.68;67.06;98801.59;5088923;28;41559;-81
2022/11/03 09:19:44;;;;;;;7.40;4.97;;;;;;;14.78;66.83;98796.38;5104149;28;38855;-81
2022/11/03 09:22:11;;;;;;;8.17;5.17;;;;;;;14.90;66.14;98800.72;5089269;28;40291;-77
2022/11/03 09:24:39;;;;;;;8.03;4.87;;;;;;;14.99;66.18;98794.63;5089267;28;41655;-77
2022/11/03 09:27:08;;;;;;;6.03;4.67;;;;;;;15.05;66.30;98773.66;5085391;28;42100;-79
2022/11/03 09:29:36;;;;;;;7.87;4.87;;;;;;;15.30;65.91;98783.16;5092307;28;40568;-80
2022/11/03 09:32:03;;;;;;;6.03;4.27;;;;;;;15.40;64.98;98768.06;5075463;28;40655;-79
2022/11/03 09:34:33;;;;;;;5.67;4.73;;;;;;;15.62;63.26;98771.63;5091520;28;42848;-80
2022/11/03 09:37:01;;;;;;;8.43;5.07;;;;;;;16.07;61.44;98772.22;5092014;28;42308;-79
2022/11/03 09:39:29;;;;;;;5.63;3.93;;;;;;;17.00;59.13;98755.94;5091918;28;38541;-77
2022/11/03 09:41:59;;;;;;;5.07;4.00;;;;;;;17.45;57.08;98746.38;5092329;28;41948;-83
2022/11/03 09:44:28;;;;;;;4.87;4.37;;;;;;;18.15;55.86;98758.56;5093477;28;42925;-80
2022/11/03 09:46:58;;;;;;;4.73;3.90;;;;;;;18.58;54.28;98716.91;5092690;28;42818;-79
2022/11/03 09:49:30;;;;;;;4.73;4.03;;;;;;;19.30;53.90;98757.09;5091119;28;40378;-80
2022/11/03 09:51:58;;;;;;;8.50;4.77;;;;;;;19.82;52.04;98769.81;5089879;28;41436;-75
2022/11/03 09:54:28;;;;;;;6.10;3.93;;;;;;;19.87;51.70;98768.38;5092290;28;42943;-81
2022/11/03 09:56:58;;;;;;;4.20;3.30;;;;;;;20.45;51.34;98740.84;5091160;28;42561;-79
2022/11/03 09:59:27;;;;;;;4.03;3.50;;;;;;;20.73;49.61;98754.94;5092524;28;40811;-77
2022/11/03 10:01:54;;;;;;;5.43;4.13;;;;;;;21.27;49.90;98775.13;5073915;28;43342;-78
2022/11/03 10:04:26;;;;;;;6.27;3.63;;;;;;;21.84;48.64;98783.28;5086802;28;43706;-80
2022/11/03 10:06:55;;;;;;;5.03;3.60;;;;;;;22.25;46.95;98792.19;5071247;28;41455;-76
2022/11/03 10:09:24;;;;;;;6.43;3.97;;;;;;;22.82;45.76;98779.38;5086199;28;40282;-83
2022/11/03 10:11:54;;;;;;;6.30;3.57;;;;;;;23.68;44.89;98775.69;5089744;28;42387;-85
2022/11/03 10:14:23;;;;;;;7.83;4.43;;;;;;;25.10;42.04;98805.38;5071837;28;41525;-78
2022/11/03 10:16:56;;;;;;;6.50;5.20;;;;;;;25.85;39.66;98821.25;5075081;28;40681;-87
2022/11/03 10:19:24;;;;;;;6.90;4.93;;;;;;;26.09;39.90;98812.69;5085993;28;40359;-87
2022/11/03 10:21:52;;;;;;;7.90;6.13;;;;;;;25.84;40.41;98797.84;5092191;28;41473;-83
2022/11/03 10:24:20;;;;;;;6.53;4.97;;;;;;;26.05;39.24;98803.28;5093593;28;42813;-84
2022/11/03 10:26:50;;;;;;;8.67;5.83;;;;;;;26.34;38.68;98771.56;5094093;28;42107;-85
2022/11/03 10:29:22;;;;;;;9.00;5.67;;;;;;;26.64;38.43;98786.59;5091712;28;39868;-79
2022/11/03 10:31:52;;;;;;;9.00;6.57;;;;;;;26.40;37.43;98768.91;5092015;28;41106;-78
2022/11/03 10:34:26;;;;;;;8.93;5.70;;;;;;;26.36;37.75;98772.22;5090281;28;42602;-79
2022/11/03 10:37:19;;;;;;;12.87;6.03;;;;;;;26.34;38.34;98760.69;5091167;28;42714;-81
2022/11/03 10:39:48;;;;;;;7.10;4.70;;;;;;;26.02;38.33;98762.97;5070026;28;40390;-84
2022/11/03 10:42:19;;;;;;;6.47;3.70;;;;;;;25.47;39.61;98752.00;5073821;28;41712;-80
2022/11/03 10:44:47;;;;;;;6.70;4.80;;;;;;;25.24;40.04;98747.56;5091210;28;41961;-82
2022/11/03 10:47:26;;;;;;;8.53;6.40;;;;;;;25.34;39.88;98731.84;5073599;28;41211;-76
2022/11/03 10:49:55;;;;;;;11.67;5.77;;;;;;;25.47;39.18;98724.88;5089086;28;39824;-84
2022/11/03 10:52:24;;;;;;;8.53;5.90;;;;;;;25.49;39.28;98722.78;5090754;28;42755;-80
2022/11/03 10:54:54;;;;;;;7.03;6.07;;;;;;;25.26;39.00;98712.16;5090211;28;42368;-81
2022/11/03 10:57:22;;;;;;;7.40;4.97;;;;;;;25.13;39.27;98702.00;5091958;28;42234;-78
2022/11/03 10:59:53;;;;;;;6.00;5.20;;;;;;;24.91;39.88;98694.84;5078164;28;39031;-79
2022/11/03 11:02:25;;;;;;;8.43;4.97;;;;;;;24.73;40.59;98686.31;5099233;28;41943;-82
2022/11/03 11:04:57;;;;;;;5.00;4.23;;;;;;;24.43;40.91;98662.00;5094672;28;43232;-83
2022/11/03 11:07:31;;;;;;;7.40;4.63;;;;;;;24.21;41.18;98671.03;5083906;28;42179;-80
2022/11/03 11:10:06;;;;;;;6.77;4.73;;;;;;;23.76;42.12;98610.66;5099525;28;40829;-81
2022/11/03 11:12:34;;;;;;;6.10;4.20;;;;;;;23.76;42.95;98636.84;5093992;28;42133;-81
2022/11/03 11:15:07;;;;;;;7.53;3.80;;;;;;;23.55;42.79;98642.97;5086807;28;42847;-80
2022/11/03 11:17:55;;;;;;;5.33;4.40;;;;;;;23.38;43.48;98627.88;5070380;28;43315;-81
2022/11/03 11:20:35;;;;;;;10.13;5.40;;;;;;;23.40;44.08;98610.47;5070299;28;41227;-81
2022/11/03 11:23:45;;;;;;;9.60;6.50;;;;;;;23.70;43.18;98611.41;5084996;28;41717;-81
2022/11/03 11:26:15;;;;;;;8.83;5.30;;;;;;;24.21;42.43;98615.03;5074718;28;43611;-81
2022/11/03 11:28:44;;;;;;;6.37;5.50;;;;;;;24.82;41.81;98612.03;5090900;28;41941;-78
2022/11/03 11:31:28;;;;;;;7.23;6.20;;;;;;;25.59;40.47;98620.28;5090786;28;40660;-80
2022/11/03 11:34:33;;;;;;;6.60;5.47;;;;;;;26.24;39.89;98624.44;5089744;28;41478;-86
2022/11/03 11:37:36;;;;;;;6.50;5.90;;;;;;;26.68;38.90;98624.88;5091467;28;43872;-83
2022/11/03 11:40:11;;;;;;;6.03;5.00;;;;;;;26.52;39.06;98622.53;5072410;28;42010;-77
2022/11/03 11:43:13;;;;;;;5.50;4.40;;;;;;;26.10;39.17;98616.22;5119573;27;40534;-82
2022/11/03 11:46:18;;;;;;;6.60;4.70;;;;;;;25.75;40.36;98590.97;5089311;28;41482;-82
2022/11/03 11:48:45;;;;;;;5.83;4.60;;;;;;;25.44;40.26;98568.00;5086622;28;42732;-81
2022/11/03 11:51:13;;;;;;;8.00;5.30;;;;;;;25.32;40.76;98570.41;5089012;28;43246;-78
2022/11/03 11:53:44;;;;;;;6.23;4.60;;;;;;;25.49;39.73;98563.66;5090474;28;40154;-81
2022/11/03 11:56:16;;;;;;;5.40;4.50;;;;;;;25.73;39.35;98578.66;5084247;28;43027;-79
2022/11/03 11:58:46;;;;;;;5.73;4.93;;;;;;;26.02;38.13;98583.84;5072600;28;41560;-79
2022/11/03 12:01:22;;;;;;;6.03;4.43;;;;;;;25.47;38.77;98535.88;5087842;28;42186;-83
2022/11/03 12:03:52;;;;;;;6.40;4.87;;;;;;;24.96;39.60;98535.31;5089157;28;39555;-82
2022/11/03 12:06:32;;;;;;;6.73;4.93;;;;;;;24.51;41.33;98531.91;5090014;28;42566;-81
2022/11/03 12:09:06;;;;;;;5.57;4.80;;;;;;;24.11;41.63;98511.66;5071114;28;43210;-85
2022/11/03 12:11:44;;;;;;;4.83;4.43;;;;;;;23.70;42.77;98494.31;5089084;28;42268;-82
2022/11/03 12:17:36;;;;;;;7.27;4.60;;;;;;;23.18;43.33;98487.91;5083805;28;42305;-79
2022/11/03 12:20:33;;;;;;;6.47;4.27;;;;;;;23.47;43.23;98483.56;5089354;28;44094;-78
2022/11/03 12:23:01;;;;;;;6.20;4.17;;;;;;;23.62;42.13;98479.00;5084426;28;42345;-80
2022/11/03 12:25:36;;;;;;;5.70;3.93;;;;;;;23.58;42.38;98483.13;5071789;28;38571;-83
2022/11/03 12:28:04;;;;;;;6.23;4.50;;;;;;;23.34;42.64;98483.38;5070674;28;42153;-82
2022/11/03 12:30:32;;;;;;;4.67;3.63;;;;;;;23.12;43.37;98472.44;5068263;28;43285;-81
2022/11/03 12:32:59;;;;;;;6.80;3.70;;;;;;;23.02;43.75;98460.22;5090730;28;40744;-86
2022/11/03 12:35:27;;;;;;;7.33;4.13;;;;;;;22.91;43.92;98458.81;5089780;28;40358;-84
2022/11/03 12:37:54;;;;;;;5.37;4.40;;;;;;;22.60;43.29;98460.78;5091777;28;41612;-78
2022/11/03 12:40:22;;;;;;;6.07;4.90;;;;;;;22.20;43.94;98447.41;5085707;28;43881;-81
2022/11/03 12:42:52;;;;;;;5.70;4.83;;;;;;;22.00;44.20;98448.91;5090319;28;42814;-78
2022/11/03 12:45:20;;;;;;;6.73;4.37;;;;;;;21.72;44.95;98440.44;5070457;28;38986;-78
2022/11/03 12:47:48;;;;;;;6.70;4.53;;;;;;;21.45;45.48;98435.50;5089382;28;42676;-79
2022/11/03 12:50:15;;;;;;;6.67;4.60;;;;;;;21.10;46.81;98408.00;5090111;28;43728;-81
2022/11/03 12:52:43;;;;;;;7.43;4.47;;;;;;;21.03;46.47;98433.09;5091033;28;41922;-77
2022/11/03 12:55:11;;;;;;;5.00;3.97;;;;;;;20.90;46.86;98441.69;5089810;28;38984;-79
2022/11/03 12:57:38;;;;;;;8.90;5.10;;;;;;;20.68;47.12;98447.78;5091154;28;41689;-79
2022/11/03 13:00:09;;;;;;;5.00;4.50;;;;;;;20.43;47.85;98411.97;5090474;28;43768;-81
2022/11/03 13:02:37;;;;;;;6.10;4.50;;;;;;;20.38;48.11;98431.34;5073682;28;42508;-80
2022/11/03 13:05:05;;;;;;;5.60;5.00;;;;;;;20.19;48.47;98423.56;5077065;28;41049;-79
2022/11/03 13:07:33;;;;;;;5.03;3.93;;;;;;;20.01;48.72;98409.44;5093779;28;41632;-80
2022/11/03 13:10:01;;;;;;;5.43;4.73;;;;;;;19.90;49.44;98397.16;5076974;28;42790;-80
2022/11/03 13:12:31;;;;;;;5.43;4.20;;;;;;;19.65;49.81;98372.09;5094996;28;42292;-80
2022/11/03 13:15:00;;;;;;;6.67;4.57;;;;;;;19.36;49.77;98334.06;5095153;28;40718;-80
2022/11/03 13:17:29;;;;;;;8.07;5.67;;;;;;;19.48;50.24;98372.19;5093001;28;41112;-77
2022/11/03 13:19:56;;;;;;;5.47;4.50;;;;;;;19.45;50.54;98365.28;5076613;28;41623;-79
2022/11/03 13:22:24;;;;;;;5.70;4.30;;;;;;;19.37;50.71;98346.47;5093496;28;42074;-80
2022/11/03 13:24:52;;;;;;;6.03;3.90;;;;;;;19.31;51.06;98341.75;5094744;28;39953;-79
2022/11/03 13:27:19;;;;;;;5.93;4.87;;;;;;;19.13;51.41;98323.09;5093384;28;41644;-80
2022/11/03 13:29:48;;;;;;;6.00;3.80;;;;;;;19.00;51.63;98328.91;5093453;28;41998;-81
2022/11/03 13:32:15;;;;;;;6.27;4.53;;;;;;;18.96;51.91;98326.69;5093180;28;42279;-80
2022/11/03 13:34:44;;;;;;;7.00;4.07;;;;;;;18.81;52.42;98313.03;5094736;28;40049;-79
2022/11/03 13:37:12;;;;;;;6.67;4.77;;;;;;;18.53;52.34;98274.84;5076638;28;41025;-77
2022/11/03 13:39:40;;;;;;;6.83;4.83;;;;;;;18.62;52.68;98302.56;5093315;28;41503;-77
2022/11/03 13:42:07;;;;;;;4.83;4.07;;;;;;;18.56;53.11;98303.16;5093211;28;42356;-80
2022/11/03 13:44:35;;;;;;;4.70;4.20;;;;;;;18.46;53.69;98305.97;5093440;28;40725;-79
2022/11/03 13:47:03;;;;;;;4.70;3.87;;;;;;;18.38;53.47;98299.72;5093293;28;42827;-79
2022/11/03 13:49:31;;;;;;;4.17;3.27;;;;;;;18.31;53.38;98294.97;5093115;28;42880;-79
2022/11/03 13:52:00;;;;;;;5.20;3.63;;;;;;;18.26;54.10;98296.47;5093045;28;42264;-81
2022/11/03 13:54:27;;;;;;;5.33;4.60;;;;;;;18.15;54.52;98294.91;5093629;28;40036;-80
2022/11/03 13:56:56;;;;;;;4.97;3.90;;;;;;;18.03;54.45;98289.94;5091618;28;40797;-83
2022/11/03 13:59:23;;;;;;;5.63;4.23;;;;;;;17.96;55.06;98284.34;5090876;28;42176;-82
2022/11/03 14:01:51;;;;;;;6.60;4.47;;;;;;;17.78;55.42;98259.47;5074421;28;42816;-84
2022/11/03 14:04:18;;;;;;;6.67;5.10;;;;;;;17.75;55.64;98271.31;5075711;28;39627;-83
2022/11/03 14:06:46;;;;;;;7.13;4.50;;;;;;;17.55;55.21;98254.56;5093492;28;42624;-84
2022/11/03 14:09:15;;;;;;;7.00;5.47;;;;;;;17.55;55.68;98275.13;5092759;28;43498;-82
2022/11/03 14:14:27;;;;;;;5.73;4.53;;;;;;;17.38;55.85;98267.94;5071863;28;41381;-81
2022/11/03 14:16:55;;;;;;;6.00;4.53;;;;;;;17.20;56.48;98249.19;5073631;28;42121;-82
2022/11/03 14:19:22;;;;;;;6.50;4.37;;;;;;;17.18;56.48;98253.88;5074606;28;44294;-81
2022/11/03 14:21:50;;;;;;;5.63;4.43;;;;;;;17.15;56.73;98252.34;5073604;28;41358;-83
2022/11/03 14:24:19;;;;;;;4.77;4.20;;;;;;;16.99;56.84;98224.56;5089942;28;38716;-85
2022/11/03 14:26:51;;;;;;;5.50;4.30;;;;;;;17.04;57.48;98241.03;5087704;28;44204;-87
2022/11/03 14:29:19;;;;;;;4.23;3.83;;;;;;;17.00;57.43;98235.13;5092358;28;45080;-81
2022/11/03 14:31:47;;;;;;;4.50;4.10;;;;;;;16.93;57.38;98228.72;5107669;28;42193;-79
2022/11/03 14:34:14;;;;;;;5.17;3.73;;;;;;;16.72;57.69;98198.69;5074293;28;39202;-78
2022/11/03 14:36:42;;;;;;;3.97;3.50;;;;;;;16.74;57.93;98218.13;5091507;28;42087;-79
2022/11/03 14:39:10;;;;;;;4.23;3.83;;;;;;;16.67;58.27;98212.53;5089673;28;43695;-79
2022/11/03 14:44:23;;;;;;;6.47;4.30;;;;;;;16.53;58.92;98197.81;5085594;28;40224;-80
2022/11/03 14:46:51;;;;;;;5.73;4.40;;;;;;;16.38;58.75;98167.22;5107830;28;41595;-84
2022/11/03 14:49:19;;;;;;;7.63;4.77;;;;;;;16.41;58.70;98180.28;5074718;28;43382;-83
2022/11/03 14:51:46;;;;;;;7.50;4.53;;;;;;;16.40;59.13;98180.44;5074436;28;41097;-84
2022/11/03 14:54:13;;;;;;;4.67;3.80;;;;;;;16.33;59.12;98165.97;5090991;28;39897;-84
2022/11/03 14:56:42;;;;;;;6.67;3.90;;;;;;;16.24;58.93;98156.19;5090304;28;41653;-87
2022/11/03 14:59:10;;;;;;;5.17;4.20;;;;;;;16.15;59.04;98144.56;5089989;28;42257;-78
2022/11/03 15:01:38;;;;;;;4.03;3.60;;;;;;;16.28;59.14;98173.59;5086796;28;42959;-81
2022/11/03 15:04:06;;;;;;;3.77;3.27;;;;;;;16.16;59.24;98163.13;5092816;28;39883;-84
2022/11/03 15:06:34;;;;;;;3.40;3.10;;;;;;;16.20;59.68;98157.47;5092787;28;40808;-90
2022/11/03 15:09:02;;;;;;;3.63;3.30;;;;;;;16.16;59.53;98157.78;5092634;28;42878;-82
2022/11/03 15:11:30;;;;;;;4.97;3.90;;;;;;;16.06;59.98;98157.00;5091209;28;43417;-83
2022/11/03 15:13:59;;;;;;;4.47;3.77;;;;;;;16.05;60.40;98160.66;5074593;28;40269;-80
2022/11/03 15:16:27;;;;;;;5.67;4.23;;;;;;;16.00;60.03;98157.56;5089155;28;42670;-80
2022/11/03 15:18:54;;;;;;;3.57;3.10;;;;;;;15.95;60.15;98141.13;5090264;28;42824;-77
2022/11/03 15:21:22;;;;;;;3.90;3.50;;;;;;;15.92;60.08;98128.09;5090611;28;42168;-80
2022/11/03 15:23:49;;;;;;;5.37;3.70;;;;;;;15.86;60.71;98139.34;5091783;28;39973;-83
2022/11/03 15:26:17;;;;;;;4.10;3.70;;;;;;;15.80;60.78;98130.09;5073446;28;40547;-84
2022/11/03 15:28:44;;;;;;;4.53;3.90;;;;;;;15.77;60.32;98119.72;5090946;28;43453;-83
2022/11/03 15:31:13;;;;;;;3.63;2.90;;;;;;;15.53;60.39;98084.66;5073314;28;40753;-83
2022/11/03 15:33:41;;;;;;;5.30;3.70;;;;;;;15.71;60.61;98106.09;5092139;28;40137;-81
2022/11/03 15:36:09;;;;;;;5.43;4.30;;;;;;;15.54;61.10;98090.81;5073859;28;43268;-86
2022/11/03 15:38:36;;;;;;;5.40;4.37;;;;;;;15.39;61.15;98072.59;5090285;28;42889;-81
2022/11/03 15:41:18;;;;;;;5.03;4.53;;;;;;;15.22;61.25;98049.34;5073532;28;41501;-83
2022/11/03 15:43:47;;;;;;;6.27;4.73;;;;;;;15.33;61.69;98062.50;5087854;28;40711;-79
2022/11/03 15:46:17;;;;;;;5.90;5.13;;;;;;;15.27;62.01;98067.59;5091580;28;41408;-79
2022/11/03 15:48:45;;;;;;;7.73;6.23;;;;;;;15.27;62.64;98073.75;5091407;28;43592;-80
2022/11/03 15:51:13;;;;;;;5.83;5.20;;;;;;;15.16;62.88;98055.28;5092739;28;42068;-80
2022/11/03 15:53:42;;;;;;;8.00;7.03;;;;;;;15.16;63.34;98065.94;5092871;28;40765;-81
2022/11/03 15:56:10;;;;;;;6.27;5.63;;;;;;;15.02;63.34;98047.72;5091693;28;41756;-82
2022/11/03 15:58:37;;;;;;;7.30;6.47;;;;;;;14.99;63.29;98064.00;5074323;28;41682;-81
2022/11/03 16:01:05;;;;;;;7.93;5.87;;;;;;;14.97;63.22;98057.94;5091212;28;42110;-81
2022/11/03 16:03:34;;;;;;;7.97;6.93;;;;;;;14.90;63.61;98060.38;5091682;28;39598;-80
2022/11/03 16:06:02;;;;;;;8.47;6.33;;;;;;;14.84;64.06;98057.41;5091279;28;41978;-80
2022/11/03 16:08:30;;;;;;;7.50;6.33;;;;;;;14.78;63.60;98045.50;5091401;28;44640;-80
2022/11/03 16:10:58;;;;;;;7.73;4.80;;;;;;;14.72;64.12;98046.06;5091254;28;42194;-80
2022/11/03 16:13:26;;;;;;;7.37;6.67;;;;;;;14.65;64.06;98051.13;5092776;28;41162;-79
2022/11/03 16:15:53;;;;;;;6.50;5.40;;;;;;;14.59;63.79;98033.03;5091216;28;42771;-79
2022/11/03 16:18:21;;;;;;;6.63;5.50;;;;;;;14.35;64.12;98006.78;5092009;28;42746;-79
2022/11/03 16:20:50;;;;;;;5.30;4.80;;;;;;;14.43;63.99;98026.59;5091978;28;42953;-79
2022/11/03 16:23:17;;;;;;;6.97;5.40;;;;;;;14.45;64.04;98038.81;5074145;28;39076;-79
2022/11/03 16:25:45;;;;;;;5.57;4.67;;;;;;;14.37;64.05;98027.94;5074153;28;42097;-79
2022/11/03 16:28:12;;;;;;;6.67;5.30;;;;;;;14.38;64.26;98021.63;5074131;28;41988;-78
2022/11/03 16:30:40;;;;;;;6.47;5.30;;;;;;;14.31;64.43;98015.22;5090578;28;42158;-79
2022/11/03 16:33:07;;;;;;;7.97;5.60;;;;;;;14.28;64.31;98020.81;5074396;28;38973;-79
2022/11/03 16:35:35;;;;;;;7.20;6.13;;;;;;;14.22;65.31;98008.88;5073837;28;40800;-79
2022/11/03 16:38:06;;;;;;;7.00;6.30;;;;;;;14.20;64.77;98020.66;5093140;28;43795;-79
2022/11/03 16:40:34;;;;;;;7.20;5.00;;;;;;;14.12;64.89;98009.84;5091383;28;42161;-79
2022/11/03 16:43:01;;;;;;;9.57;6.60;;;;;;;14.04;64.97;98007.88;5094369;28;38998;-78
2022/11/03 16:45:29;;;;;;;6.23;5.63;;;;;;;14.00;65.21;98002.00;5077407;28;41098;-80
2022/11/03 16:47:57;;;;;;;9.70;7.87;;;;;;;13.91;67.05;97973.53;5077382;28;41497;-79
2022/11/03 16:50:25;;;;;;;9.40;8.10;;;;;;;13.87;67.21;97963.31;5077308;28;41206;-78
2022/11/03 16:52:53;;;;;;;10.03;7.77;;;;;;;13.68;67.58;97937.53;5077150;28;40441;-79
2022/11/03 16:55:22;;;;;;;8.90;6.87;;;;;;;13.75;67.54;97962.59;5094657;28;41783;-78
2022/11/03 16:57:50;;;;;;;8.60;6.50;;;;;;;13.66;67.21;97964.25;5094091;28;41584;-79
2022/11/03 17:00:19;;;;;;;5.73;5.13;;;;;;;13.71;66.70;97966.53;5094143;28;41039;-79
2022/11/03 17:02:47;;;;;;;6.23;5.63;;;;;;;13.57;67.03;97949.13;5093887;28;39983;-78
2022/11/03 17:05:17;;;;;;;8.20;6.70;;;;;;;13.67;67.10;97957.13;5094246;28;42756;-79
2022/11/03 17:07:45;;;;;;;6.93;6.23;;;;;;;13.66;67.00;97955.44;5093783;28;41508;-79
2022/11/03 17:10:13;;;;;;;7.73;6.30;;;;;;;13.66;67.08;97955.44;5094109;28;42237;-79
2022/11/03 17:12:42;;;;;;;9.13;7.37;;;;;;;13.64;67.35;97957.38;5095244;28;39877;-79
2022/11/03 17:15:10;;;;;;;12.03;7.63;;;;;;;13.49;67.42;97937.47;5095254;28;41732;-78
2022/11/03 17:17:38;;;;;;;11.20;6.60;;;;;;;13.58;67.25;97952.63;5093478;28;42065;-78
2022/11/03 17:20:07;;;;;;;10.33;8.17;;;;;;;13.45;67.07;97952.88;5093844;28;41145;-79
2022/11/03 17:22:34;;;;;;;8.20;6.73;;;;;;;13.51;67.83;97956.78;5093991;28;40818;-79
2022/11/03 17:25:02;;;;;;;7.97;6.20;;;;;;;13.51;67.39;97946.16;5094016;28;42041;-79
2022/11/03 17:27:37;;;;;;;7.37;6.57;;;;;;;13.51;67.51;97940.84;5093722;28;43700;-79
2022/11/03 17:30:08;;;;;;;8.20;6.37;;;;;;;13.48;67.07;97941.09;5093845;28;44041;-79
2022/11/03 17:32:39;;;;;;;7.33;6.33;;;;;;;13.41;66.97;97937.31;5093667;28;39980;-78
2022/11/03 17:35:15;;;;;;;7.40;5.80;;;;;;;13.47;66.84;97939.44;5076505;28;40896;-79
2022/11/03 17:37:43;;;;;;;8.07;7.07;;;;;;;13.40;66.95;97917.00;5077857;28;42079;-79
2022/11/03 17:40:15;;;;;;;8.47;7.57;;;;;;;13.48;67.11;97930.47;5076930;28;41071;-80
2022/11/03 17:42:43;;;;;;;10.00;7.27;;;;;;;13.41;66.87;97916.03;5093641;28;39995;-79
2022/11/03 17:45:14;;;;;;;7.93;6.40;;;;;;;13.43;66.75;97924.72;5093828;28;40896;-79
2022/11/03 17:47:42;;;;;;;9.90;7.40;;;;;;;13.36;66.66;97900.47;5093934;28;41617;-80
2022/11/03 17:50:13;;;;;;;8.23;6.77;;;;;;;13.46;66.56;97919.97;5076019;28;42993;-80
2022/11/03 17:52:41;;;;;;;9.53;6.77;;;;;;;13.36;66.70;97899.63;5094852;28;39881;-79
2022/11/03 17:55:17;;;;;;;10.43;7.03;;;;;;;13.39;66.89;97902.88;5093533;28;41677;-79
2022/11/03 17:57:45;;;;;;;7.67;6.87;;;;;;;13.44;67.23;97907.78;5094679;28;43037;-79
2022/11/03 18:00:19;;;;;;;8.40;6.90;;;;;;;13.44;66.96;97902.47;5093490;28;42263;-79
2022/11/03 18:02:49;;;;;;;8.07;6.90;;;;;;;13.41;66.87;97892.94;5093389;28;40755;-79
2022/11/03 18:05:27;;;;;;;7.50;6.17;;;;;;;13.23;66.71;97857.34;5076492;28;43739;-79
2022/11/03 18:07:56;;;;;;;6.83;6.07;;;;;;;13.36;66.64;97881.88;5091655;28;43699;-79
2022/11/03 18:10:26;;;;;;;8.23;6.77;;;;;;;13.33;66.90;97868.03;5076551;28;41151;-79
2022/11/03 18:15:44;;;;;;;6.93;6.20;;;;;;;13.35;66.80;97866.06;5075618;28;41145;-79
2022/11/03 18:18:17;;;;;;;9.63;6.73;;;;;;;13.32;66.79;97855.72;5076369;28;41630;-79
2022/11/03 18:20:48;;;;;;;6.97;6.17;;;;;;;13.33;66.81;97852.06;5090141;28;42337;-79
2022/11/03 18:23:18;;;;;;;6.10;5.43;;;;;;;13.29;66.87;97846.19;5092834;28;39029;-79
2022/11/03 18:25:46;;;;;;;7.43;6.30;;;;;;;13.27;66.72;97853.44;5092599;28;42127;-79
2022/11/03 18:28:14;;;;;;;6.47;5.53;;;;;;;13.18;66.56;97839.16;5076144;28;43097;-79
2022/11/03 18:30:45;;;;;;;7.27;5.70;;;;;;;13.13;66.65;97827.22;5092763;28;41965;-79
2022/11/03 18:33:18;;;;;;;5.00;4.50;;;;;;;13.13;66.83;97836.03;5093085;28;40091;-79
2022/11/03 18:35:49;;;;;;;6.80;5.43;;;;;;;13.04;66.75;97826.22;5075751;28;43489;-79
2022/11/03 18:38:18;;;;;;;6.17;5.37;;;;;;;12.98;66.55;97808.19;5076050;28;42994;-79
2022/11/03 18:40:46;;;;;;;6.63;5.40;;;;;;;13.01;66.67;97813.22;5075971;28;41419;-79
2022/11/03 18:43:16;;;;;;;6.50;4.97;;;;;;;13.01;66.87;97810.53;5093065;28;39983;-79
2022/11/03 18:45:45;;;;;;;5.13;4.43;;;;;;;13.03;66.32;97816.56;5093652;28;43659;-79
2022/11/03 18:48:18;;;;;;;6.73;5.80;;;;;;;12.92;67.47;97822.00;5075400;28;44162;-79
2022/11/03 18:50:48;;;;;;;7.20;5.67;;;;;;;12.89;67.19;97822.25;5090926;28;43246;-79
2022/11/03 18:53:19;;;;;;;7.83;7.03;;;;;;;12.99;67.57;97812.50;5092981;28;38918;-79
2022/11/03 18:55:47;;;;;;;8.60;7.10;;;;;;;12.99;67.73;97815.16;5092468;28;42476;-79
2022/11/03 18:58:20;;;;;;;7.80;6.20;;;;;;;12.99;67.52;97833.75;5092585;28;44126;-79
2022/11/03 19:00:49;;;;;;;7.30;6.60;;;;;;;12.96;67.54;97818.09;5091282;28;42487;-79
2022/11/03 19:03:18;;;;;;;7.67;6.93;;;;;;;12.97;67.81;97808.31;5092548;28;40237;-78
2022/11/03 19:05:48;;;;;;;7.07;6.27;;;;;;;12.97;68.05;97806.50;5092326;28;41935;-79
2022/11/03 19:08:20;;;;;;;6.50;5.87;;;;;;;12.99;67.81;97801.88;5092233;28;43186;-79
2022/11/03 19:10:48;;;;;;;6.50;5.80;;;;;;;13.02;67.62;97801.59;5091793;28;41956;-79
2022/11/03 19:13:26;;;;;;;8.43;6.60;;;;;;;13.00;67.66;97797.38;5075396;28;38910;-79
2022/11/03 19:15:56;;;;;;;7.87;6.20;;;;;;;12.95;67.47;97803.97;5091677;28;40930;-79
2022/11/03 19:18:26;;;;;;;7.60;6.53;;;;;;;13.04;67.42;97828.88;5092238;28;43060;-78
2022/11/03 19:20:53;;;;;;;9.10;7.00;;;;;;;13.04;67.30;97826.22;5091839;28;42091;-79